sensor_id;sensor_type;location;lat;lon;timestamp;pressure;altitude;pressure_sealevel;temperature;humidity
52957;BME280;38819;42.692;23.342;2023-03-25T00:01:31;95016.59;;;11.84;59.24
52957;BME280;38819;42.692;23.342;2023-03-25T00:04:00;95016.91;;;11.83;59.34
52957;BME280;38819;42.692;23.342;2023-03-25T00:06:29;95020.34;;;11.75;59.46
52957;BME280;38819;42.692;23.342;2023-03-25T00:08:54;95022.50;;;11.73;59.35
52957;BME280;38819;42.692;23.342;2023-03-25T00:11:20;95021.72;;;11.72;59.70
52957;BME280;38819;42.692;23.342;2023-03-25T00:13:46;95025.16;;;11.64;59.85
52957;BME280;38819;42.692;23.342;2023-03-25T00:16:13;95021.53;;;11.68;60.08
52957;BME280;38819;42.692;23.342;2023-03-25T00:18:39;95005.31;;;11.68;59.97
52957;BME280;38819;42.692;23.342;2023-03-25T00:21:08;95007.94;;;11.60;60.50
52957;BME280;38819;42.692;23.342;2023-03-25T00:23:37;95013.53;;;11.63;60.44
52957;BME280;38819;42.692;23.342;2023-03-25T00:26:04;95005.47;;;11.49;60.50
52957;BME280;38819;42.692;23.342;2023-03-25T00:28:31;95002.75;;;11.49;60.43
52957;BME280;38819;42.692;23.342;2023-03-25T00:31:00;94989.22;;;11.49;60.48
52957;BME280;38819;42.692;23.342;2023-03-25T00:33:27;94983.41;;;11.42;60.75
52957;BME280;38819;42.692;23.342;2023-03-25T00:35:53;94995.63;;;11.54;60.80
52957;BME280;38819;42.692;23.342;2023-03-25T00:38:28;94999.94;;;11.41;61.05
52957;BME280;38819;42.692;23.342;2023-03-25T00:41:18;95010.75;;;11.41;61.03
52957;BME280;38819;42.692;23.342;2023-03-25T00:43:51;94999.97;;;11.27;61.90
52957;BME280;38819;42.692;23.342;2023-03-25T00:46:17;94998.28;;;11.31;61.33
52957;BME280;38819;42.692;23.342;2023-03-25T00:48:43;94992.03;;;11.30;61.48
52957;BME280;38819;42.692;23.342;2023-03-25T00:51:08;94987.88;;;11.24;61.71
52957;BME280;38819;42.692;23.342;2023-03-25T00:53:39;94995.88;;;11.29;61.56
52957;BME280;38819;42.692;23.342;2023-03-25T00:56:06;94990.44;;;11.16;62.13
52957;BME280;38819;42.692;23.342;2023-03-25T00:58:32;94982.44;;;11.10;62.11
52957;BME280;38819;42.692;23.342;2023-03-25T01:00:57;94983.03;;;11.07;62.49
52957;BME280;38819;42.692;23.342;2023-03-25T01:03:24;94983.28;;;11.11;62.24
52957;BME280;38819;42.692;23.342;2023-03-25T01:05:50;94990.75;;;11.14;62.18
52957;BME280;38819;42.692;23.342;2023-03-25T01:08:19;94975.56;;;11.04;62.24
52957;BME280;38819;42.692;23.342;2023-03-25T01:10:51;94974.34;;;11.10;62.10
52957;BME280;38819;42.692;23.342;2023-03-25T01:13:17;94978.88;;;11.01;62.60
52957;BME280;38819;42.692;23.342;2023-03-25T01:15:43;94970.63;;;10.92;62.94
52957;BME280;38819;42.692;23.342;2023-03-25T01:18:08;94961.66;;;10.83;63.24
52957;BME280;38819;42.692;23.342;2023-03-25T01:20:33;94961.75;;;10.78;63.36
52957;BME280;38819;42.692;23.342;2023-03-25T01:22:59;94963.94;;;10.76;63.47
52957;BME280;38819;42.692;23.342;2023-03-25T01:25:25;94977.84;;;10.69;63.89
52957;BME280;38819;42.692;23.342;2023-03-25T01:27:50;94969.94;;;10.73;63.43
52957;BME280;38819;42.692;23.342;2023-03-25T01:30:16;94954.94;;;10.67;63.93
52957;BME280;38819;42.692;23.342;2023-03-25T01:32:41;94945.94;;;10.57;64.01
52957;BME280;38819;42.692;23.342;2023-03-25T01:35:07;94946.72;;;10.58;64.28
52957;BME280;38819;42.692;23.342;2023-03-25T01:37:35;94940.34;;;10.68;63.68
52957;BME280;38819;42.692;23.342;2023-03-25T01:40:01;94947.84;;;10.71;63.47
52957;BME280;38819;42.692;23.342;2023-03-25T01:42:29;94937.13;;;10.80;62.92
52957;BME280;38819;42.692;23.342;2023-03-25T01:47:37;94936.91;;;10.62;63.71
52957;BME280;38819;42.692;23.342;2023-03-25T01:50:03;94935.03;;;10.63;63.72
52957;BME280;38819;42.692;23.342;2023-03-25T01:52:29;94939.91;;;10.61;64.03
52957;BME280;38819;42.692;23.342;2023-03-25T01:54:56;94945.31;;;10.61;63.61
52957;BME280;38819;42.692;23.342;2023-03-25T01:57:22;94951.34;;;10.71;63.38
52957;BME280;38819;42.692;23.342;2023-03-25T01:59:49;94944.03;;;10.72;63.35
52957;BME280;38819;42.692;23.342;2023-03-25T02:02:16;94941.72;;;10.65;63.36
52957;BME280;38819;42.692;23.342;2023-03-25T02:04:57;94940.41;;;10.49;63.99
52957;BME280;38819;42.692;23.342;2023-03-25T02:07:30;94935.59;;;10.32;64.65
52957;BME280;38819;42.692;23.342;2023-03-25T02:09:59;94938.34;;;10.27;64.86
52957;BME280;38819;42.692;23.342;2023-03-25T02:12:26;94927.56;;;10.27;64.97
52957;BME280;38819;42.692;23.342;2023-03-25T02:14:52;94931.00;;;10.32;64.79
52957;BME280;38819;42.692;23.342;2023-03-25T02:23:43;94921.50;;;10.49;63.90
52957;BME280;38819;42.692;23.342;2023-03-25T02:35:10;94925.22;;;10.39;64.04
52957;BME280;38819;42.692;23.342;2023-03-25T02:38:02;94923.22;;;10.45;63.74
52957;BME280;38819;42.692;23.342;2023-03-25T02:43:35;94921.19;;;10.36;63.46
52957;BME280;38819;42.692;23.342;2023-03-25T02:46:07;94920.13;;;10.37;63.69
52957;BME280;38819;42.692;23.342;2023-03-25T02:49:04;94918.31;;;10.33;63.78
52957;BME280;38819;42.692;23.342;2023-03-25T02:51:35;94924.41;;;10.38;63.55
52957;BME280;38819;42.692;23.342;2023-03-25T02:54:09;94919.28;;;10.37;63.42
52957;BME280;38819;42.692;23.342;2023-03-25T02:56:37;94918.66;;;10.26;63.59
52957;BME280;38819;42.692;23.342;2023-03-25T02:59:05;94915.41;;;10.10;64.34
52957;BME280;38819;42.692;23.342;2023-03-25T03:01:32;94903.25;;;10.13;64.28
52957;BME280;38819;42.692;23.342;2023-03-25T03:03:59;94904.03;;;10.13;64.30
52957;BME280;38819;42.692;23.342;2023-03-25T03:06:24;94906.44;;;10.15;64.39
52957;BME280;38819;42.692;23.342;2023-03-25T03:25:30;94910.59;;;9.93;65.03
52957;BME280;38819;42.692;23.342;2023-03-25T03:30:43;94913.38;;;9.88;65.05
52957;BME280;38819;42.692;23.342;2023-03-25T03:34:19;94909.31;;;9.72;65.26
52957;BME280;38819;42.692;23.342;2023-03-25T03:36:33;94908.53;;;9.71;65.67
52957;BME280;38819;42.692;23.342;2023-03-25T03:39:05;94910.13;;;9.72;65.49
52957;BME280;38819;42.692;23.342;2023-03-25T03:41:36;94917.03;;;9.78;64.82
52957;BME280;38819;42.692;23.342;2023-03-25T03:44:13;94915.56;;;9.86;64.79
52957;BME280;38819;42.692;23.342;2023-03-25T03:46:52;94922.78;;;9.91;64.51
52957;BME280;38819;42.692;23.342;2023-03-25T03:49:23;94923.44;;;9.82;64.62
52957;BME280;38819;42.692;23.342;2023-03-25T03:52:13;94922.34;;;9.83;64.81
52957;BME280;38819;42.692;23.342;2023-03-25T03:54:51;94910.03;;;9.77;65.03
52957;BME280;38819;42.692;23.342;2023-03-25T03:57:44;94914.16;;;9.89;64.76
52957;BME280;38819;42.692;23.342;2023-03-25T04:00:27;94912.56;;;9.88;64.85
52957;BME280;38819;42.692;23.342;2023-03-25T04:03:33;94917.47;;;9.86;64.64
52957;BME280;38819;42.692;23.342;2023-03-25T04:05:59;94920.22;;;9.80;64.60
52957;BME280;38819;42.692;23.342;2023-03-25T04:08:35;94925.63;;;9.80;64.74
52957;BME280;38819;42.692;23.342;2023-03-25T04:11:04;94925.63;;;9.80;64.80
52957;BME280;38819;42.692;23.342;2023-03-25T04:13:40;94923.25;;;9.79;65.02
52957;BME280;38819;42.692;23.342;2023-03-25T04:16:08;94915.44;;;9.58;65.60
52957;BME280;38819;42.692;23.342;2023-03-25T04:18:34;94916.56;;;9.57;65.51
52957;BME280;38819;42.692;23.342;2023-03-25T04:21:00;94908.47;;;9.57;65.67
52957;BME280;38819;42.692;23.342;2023-03-25T04:23:26;94909.63;;;9.51;66.02
52957;BME280;38819;42.692;23.342;2023-03-25T04:25:54;94910.16;;;9.34;66.62
52957;BME280;38819;42.692;23.342;2023-03-25T04:28:21;94909.19;;;9.25;66.90
52957;BME280;38819;42.692;23.342;2023-03-25T04:30:48;94914.22;;;9.32;66.71
52957;BME280;38819;42.692;23.342;2023-03-25T04:33:14;94914.38;;;9.40;66.39
52957;BME280;38819;42.692;23.342;2023-03-25T04:35:40;94913.88;;;9.38;66.46
52957;BME280;38819;42.692;23.342;2023-03-25T04:38:06;94928.50;;;9.51;66.63
52957;BME280;38819;42.692;23.342;2023-03-25T04:40:32;94912.97;;;9.62;66.12
52957;BME280;38819;42.692;23.342;2023-03-25T04:42:57;94917.47;;;9.67;65.77
52957;BME280;38819;42.692;23.342;2023-03-25T04:45:24;94918.06;;;9.63;66.16
52957;BME280;38819;42.692;23.342;2023-03-25T04:47:50;94931.78;;;9.48;66.63
52957;BME280;38819;42.692;23.342;2023-03-25T04:50:26;94926.72;;;9.60;66.05
52957;BME280;38819;42.692;23.342;2023-03-25T04:52:53;94928.72;;;9.55;66.54
52957;BME280;38819;42.692;23.342;2023-03-25T04:55:19;94929.44;;;9.60;66.04
52957;BME280;38819;42.692;23.342;2023-03-25T04:57:50;94922.53;;;9.54;66.46
52957;BME280;38819;42.692;23.342;2023-03-25T05:00:18;94927.94;;;9.54;66.32
52957;BME280;38819;42.692;23.342;2023-03-25T05:02:46;94933.66;;;9.67;65.94
52957;BME280;38819;42.692;23.342;2023-03-25T05:05:13;94929.31;;;9.71;65.80
52957;BME280;38819;42.692;23.342;2023-03-25T05:07:50;94929.06;;;9.67;65.94
52957;BME280;38819;42.692;23.342;2023-03-25T05:10:17;94930.59;;;9.73;66.03
52957;BME280;38819;42.692;23.342;2023-03-25T05:12:43;94932.84;;;9.85;65.73
52957;BME280;38819;42.692;23.342;2023-03-25T05:15:10;94926.44;;;9.81;65.92
52957;BME280;38819;42.692;23.342;2023-03-25T05:17:36;94931.16;;;9.89;65.66
52957;BME280;38819;42.692;23.342;2023-03-25T05:20:04;94928.59;;;9.98;65.54
52957;BME280;38819;42.692;23.342;2023-03-25T05:22:36;94933.28;;;9.92;65.80
52957;BME280;38819;42.692;23.342;2023-03-25T05:25:07;94930.50;;;9.97;65.59
52957;BME280;38819;42.692;23.342;2023-03-25T05:27:33;94932.56;;;10.00;65.55
52957;BME280;38819;42.692;23.342;2023-03-25T05:29:59;94918.28;;;10.00;65.40
52957;BME280;38819;42.692;23.342;2023-03-25T05:32:25;94930.44;;;10.16;65.18
52957;BME280;38819;42.692;23.342;2023-03-25T05:34:54;94918.31;;;10.14;65.34
52957;BME280;38819;42.692;23.342;2023-03-25T05:37:20;94924.06;;;10.26;64.91
52957;BME280;38819;42.692;23.342;2023-03-25T05:39:46;94922.44;;;10.25;64.86
52957;BME280;38819;42.692;23.342;2023-03-25T05:42:11;94921.78;;;10.33;64.86
52957;BME280;38819;42.692;23.342;2023-03-25T05:44:37;94931.50;;;10.48;64.47
52957;BME280;38819;42.692;23.342;2023-03-25T05:47:11;94932.72;;;10.56;64.25
52957;BME280;38819;42.692;23.342;2023-03-25T05:49:37;94932.09;;;10.59;64.08
52957;BME280;38819;42.692;23.342;2023-03-25T05:52:02;94926.31;;;10.66;63.84
52957;BME280;38819;42.692;23.342;2023-03-25T05:54:28;94923.22;;;10.72;63.46
52957;BME280;38819;42.692;23.342;2023-03-25T05:56:53;94923.63;;;10.80;63.18
52957;BME280;38819;42.692;23.342;2023-03-25T05:59:19;94928.63;;;10.86;63.00
52957;BME280;38819;42.692;23.342;2023-03-25T06:01:44;94941.13;;;10.96;62.44
52957;BME280;38819;42.692;23.342;2023-03-25T06:04:11;94931.91;;;10.97;62.58
52957;BME280;38819;42.692;23.342;2023-03-25T06:06:38;94930.22;;;10.73;62.55
52957;BME280;38819;42.692;23.342;2023-03-25T06:09:05;94941.63;;;10.70;63.29
52957;BME280;38819;42.692;23.342;2023-03-25T06:11:31;94926.31;;;10.66;63.01
52957;BME280;38819;42.692;23.342;2023-03-25T06:14:03;94927.41;;;10.79;62.82
52957;BME280;38819;42.692;23.342;2023-03-25T06:16:28;94921.91;;;10.84;62.59
52957;BME280;38819;42.692;23.342;2023-03-25T06:18:55;94926.41;;;10.88;62.34
52957;BME280;38819;42.692;23.342;2023-03-25T06:21:24;94923.13;;;10.91;62.24
52957;BME280;38819;42.692;23.342;2023-03-25T06:23:51;94932.22;;;10.96;61.87
52957;BME280;38819;42.692;23.342;2023-03-25T06:26:19;94924.53;;;11.03;61.69
52957;BME280;38819;42.692;23.342;2023-03-25T06:28:45;94928.09;;;11.12;61.60
52957;BME280;38819;42.692;23.342;2023-03-25T06:31:16;94924.59;;;11.11;61.43
52957;BME280;38819;42.692;23.342;2023-03-25T06:33:43;94927.78;;;11.13;61.32
52957;BME280;38819;42.692;23.342;2023-03-25T06:36:10;94929.91;;;11.17;61.43
52957;BME280;38819;42.692;23.342;2023-03-25T06:38:37;94926.69;;;11.15;61.40
52957;BME280;38819;42.692;23.342;2023-03-25T06:41:03;94918.19;;;11.07;61.89
52957;BME280;38819;42.692;23.342;2023-03-25T06:43:28;94924.00;;;11.15;61.63
52957;BME280;38819;42.692;23.342;2023-03-25T06:45:54;94936.19;;;11.12;61.95
52957;BME280;38819;42.692;23.342;2023-03-25T06:48:19;94932.00;;;11.20;61.86
52957;BME280;38819;42.692;23.342;2023-03-25T06:50:44;94933.28;;;11.22;61.67
52957;BME280;38819;42.692;23.342;2023-03-25T06:53:10;94937.91;;;11.22;61.71
52957;BME280;38819;42.692;23.342;2023-03-25T06:55:36;94934.41;;;11.21;61.77
52957;BME280;38819;42.692;23.342;2023-03-25T06:58:03;94935.38;;;11.25;62.17
52957;BME280;38819;42.692;23.342;2023-03-25T07:00:29;94937.22;;;11.16;62.30
52957;BME280;38819;42.692;23.342;2023-03-25T07:02:54;94938.78;;;11.31;62.05
52957;BME280;38819;42.692;23.342;2023-03-25T07:05:20;94938.78;;;11.31;61.97
52957;BME280;38819;42.692;23.342;2023-03-25T07:07:46;94939.63;;;11.18;62.77
52957;BME280;38819;42.692;23.342;2023-03-25T07:10:12;94945.41;;;11.25;62.59
52957;BME280;38819;42.692;23.342;2023-03-25T07:12:37;94939.59;;;11.31;62.61
52957;BME280;38819;42.692;23.342;2023-03-25T07:15:03;94937.63;;;11.46;62.23
52957;BME280;38819;42.692;23.342;2023-03-25T07:17:29;94921.69;;;11.58;62.02
52957;BME280;38819;42.692;23.342;2023-03-25T07:19:54;94921.94;;;11.71;61.97
52957;BME280;38819;42.692;23.342;2023-03-25T07:22:20;94932.19;;;11.82;61.49
52957;BME280;38819;42.692;23.342;2023-03-25T07:24:45;94928.59;;;11.87;60.86
52957;BME280;38819;42.692;23.342;2023-03-25T07:27:11;94936.59;;;11.92;60.75
52957;BME280;38819;42.692;23.342;2023-03-25T07:29:37;94940.72;;;11.90;60.76
52957;BME280;38819;42.692;23.342;2023-03-25T07:32:05;94931.47;;;11.91;60.96
52957;BME280;38819;42.692;23.342;2023-03-25T07:34:30;94932.06;;;12.01;60.56
52957;BME280;38819;42.692;23.342;2023-03-25T07:36:56;94926.66;;;12.01;60.61
52957;BME280;38819;42.692;23.342;2023-03-25T07:39:21;94933.38;;;12.13;60.46
52957;BME280;38819;42.692;23.342;2023-03-25T07:41:54;94922.81;;;12.25;60.28
52957;BME280;38819;42.692;23.342;2023-03-25T07:44:20;94920.25;;;12.20;60.63
52957;BME280;38819;42.692;23.342;2023-03-25T07:46:46;94918.44;;;12.38;60.11
52957;BME280;38819;42.692;23.342;2023-03-25T07:49:13;94928.03;;;12.53;59.68
52957;BME280;38819;42.692;23.342;2023-03-25T07:51:39;94923.66;;;12.74;59.08
52957;BME280;38819;42.692;23.342;2023-03-25T07:54:06;94912.88;;;12.83;58.40
52957;BME280;38819;42.692;23.342;2023-03-25T07:56:32;94909.25;;;12.96;58.47
52957;BME280;38819;42.692;23.342;2023-03-25T07:58:58;94904.94;;;12.95;58.33
52957;BME280;38819;42.692;23.342;2023-03-25T08:01:23;94902.41;;;13.08;58.10
52957;BME280;38819;42.692;23.342;2023-03-25T08:03:49;94897.19;;;13.20;57.64
52957;BME280;38819;42.692;23.342;2023-03-25T08:06:14;94887.75;;;13.26;57.62
52957;BME280;38819;42.692;23.342;2023-03-25T08:08:40;94895.09;;;13.26;57.59
52957;BME280;38819;42.692;23.342;2023-03-25T08:11:06;94890.00;;;13.24;57.76
52957;BME280;38819;42.692;23.342;2023-03-25T08:13:32;94888.41;;;13.23;57.80
52957;BME280;38819;42.692;23.342;2023-03-25T08:15:57;94865.41;;;13.21;57.33
52957;BME280;38819;42.692;23.342;2023-03-25T08:18:23;94876.13;;;13.26;57.78
52957;BME280;38819;42.692;23.342;2023-03-25T08:20:48;94886.38;;;13.38;57.47
52957;BME280;38819;42.692;23.342;2023-03-25T08:23:18;94882.06;;;13.45;57.59
52957;BME280;38819;42.692;23.342;2023-03-25T08:25:46;94872.16;;;13.49;57.42
52957;BME280;38819;42.692;23.342;2023-03-25T08:28:16;94868.63;;;13.66;57.01
52957;BME280;38819;42.692;23.342;2023-03-25T08:30:43;94870.72;;;13.78;56.84
52957;BME280;38819;42.692;23.342;2023-03-25T08:33:09;94867.38;;;13.90;56.35
52957;BME280;38819;42.692;23.342;2023-03-25T08:35:36;94873.09;;;13.97;56.32
52957;BME280;38819;42.692;23.342;2023-03-25T08:38:02;94871.16;;;14.15;55.99
52957;BME280;38819;42.692;23.342;2023-03-25T08:40:34;94870.16;;;14.20;55.64
52957;BME280;38819;42.692;23.342;2023-03-25T08:42:59;94858.78;;;14.35;55.12
52957;BME280;38819;42.692;23.342;2023-03-25T08:45:25;94859.16;;;14.55;54.95
52957;BME280;38819;42.692;23.342;2023-03-25T08:47:51;94849.28;;;14.59;54.10
52957;BME280;38819;42.692;23.342;2023-03-25T08:50:16;94849.56;;;14.66;54.25
52957;BME280;38819;42.692;23.342;2023-03-25T08:52:42;94860.09;;;14.68;53.55
52957;BME280;38819;42.692;23.342;2023-03-25T08:55:09;94853.06;;;14.67;53.80
52957;BME280;38819;42.692;23.342;2023-03-25T08:57:35;94846.19;;;14.69;53.88
52957;BME280;38819;42.692;23.342;2023-03-25T09:00:03;94850.47;;;14.79;53.89
52957;BME280;38819;42.692;23.342;2023-03-25T09:02:33;94839.78;;;14.74;53.38
52957;BME280;38819;42.692;23.342;2023-03-25T09:04:58;94838.94;;;14.82;53.72
52957;BME280;38819;42.692;23.342;2023-03-25T09:07:23;94830.25;;;14.89;53.52
52957;BME280;38819;42.692;23.342;2023-03-25T09:09:50;94832.91;;;14.97;53.17
52957;BME280;38819;42.692;23.342;2023-03-25T09:12:15;94838.28;;;15.06;52.29
52957;BME280;38819;42.692;23.342;2023-03-25T09:14:41;94820.66;;;15.12;52.52
52957;BME280;38819;42.692;23.342;2023-03-25T09:17:06;94817.41;;;15.19;52.68
52957;BME280;38819;42.692;23.342;2023-03-25T09:19:34;94824.25;;;15.25;52.37
52957;BME280;38819;42.692;23.342;2023-03-25T09:21:59;94812.50;;;15.33;52.10
52957;BME280;38819;42.692;23.342;2023-03-25T09:24:25;94809.06;;;15.45;51.15
52957;BME280;38819;42.692;23.342;2023-03-25T09:26:52;94808.44;;;15.61;51.06
52957;BME280;38819;42.692;23.342;2023-03-25T09:29:18;94810.16;;;15.65;51.10
52957;BME280;38819;42.692;23.342;2023-03-25T09:31:43;94808.47;;;15.73;50.80
52957;BME280;38819;42.692;23.342;2023-03-25T09:34:09;94804.78;;;15.78;50.87
52957;BME280;38819;42.692;23.342;2023-03-25T09:36:35;94807.28;;;15.83;50.07
52957;BME280;38819;42.692;23.342;2023-03-25T09:39:01;94801.88;;;15.95;49.39
52957;BME280;38819;42.692;23.342;2023-03-25T09:44:15;94797.81;;;16.14;50.35
52957;BME280;38819;42.692;23.342;2023-03-25T09:46:43;94794.69;;;16.24;50.06
52957;BME280;38819;42.692;23.342;2023-03-25T09:49:17;94788.66;;;16.30;50.08
52957;BME280;38819;42.692;23.342;2023-03-25T09:51:45;94788.44;;;16.36;49.82
52957;BME280;38819;42.692;23.342;2023-03-25T09:54:29;94787.41;;;16.53;49.60
52957;BME280;38819;42.692;23.342;2023-03-25T09:56:59;94787.31;;;16.61;48.81
52957;BME280;38819;42.692;23.342;2023-03-25T09:59:58;94782.41;;;16.67;47.99
52957;BME280;38819;42.692;23.342;2023-03-25T10:07:55;94781.38;;;16.96;44.25
52957;BME280;38819;42.692;23.342;2023-03-25T10:10:40;94773.06;;;17.05;43.83
52957;BME280;38819;42.692;23.342;2023-03-25T10:21:39;94747.25;;;17.43;40.92
52957;BME280;38819;42.692;23.342;2023-03-25T10:24:20;94735.81;;;17.53;40.75
52957;BME280;38819;42.692;23.342;2023-03-25T10:27:00;94746.84;;;17.57;38.84
52957;BME280;38819;42.692;23.342;2023-03-25T10:29:36;94741.22;;;17.66;39.99
52957;BME280;38819;42.692;23.342;2023-03-25T10:32:14;94731.28;;;17.73;39.75
52957;BME280;38819;42.692;23.342;2023-03-25T10:34:50;94732.06;;;17.74;38.61
52957;BME280;38819;42.692;23.342;2023-03-25T10:37:28;94731.47;;;17.81;38.98
52957;BME280;38819;42.692;23.342;2023-03-25T10:40:26;94718.38;;;17.86;38.98
52957;BME280;38819;42.692;23.342;2023-03-25T10:43:42;94720.50;;;17.93;39.37
52957;BME280;38819;42.692;23.342;2023-03-25T10:45:44;94711.88;;;17.91;39.10
52957;BME280;38819;42.692;23.342;2023-03-25T10:48:27;94708.06;;;17.95;39.41
52957;BME280;38819;42.692;23.342;2023-03-25T10:51:09;94720.50;;;17.93;39.63
52957;BME280;38819;42.692;23.342;2023-03-25T10:53:36;94704.47;;;17.91;39.78
52957;BME280;38819;42.692;23.342;2023-03-25T10:56:08;94706.59;;;17.98;39.61
52957;BME280;38819;42.692;23.342;2023-03-25T10:58:38;94699.97;;;17.99;39.99
52957;BME280;38819;42.692;23.342;2023-03-25T11:01:10;94693.53;;;18.07;40.01
52957;BME280;38819;42.692;23.342;2023-03-25T11:03:38;94700.31;;;18.13;40.25
52957;BME280;38819;42.692;23.342;2023-03-25T11:06:05;94677.69;;;18.13;40.33
52957;BME280;38819;42.692;23.342;2023-03-25T11:08:31;94687.28;;;18.23;40.54
52957;BME280;38819;42.692;23.342;2023-03-25T11:10:56;94679.94;;;18.27;40.41
52957;BME280;38819;42.692;23.342;2023-03-25T11:13:26;94681.34;;;18.37;40.63
52957;BME280;38819;42.692;23.342;2023-03-25T11:15:53;94669.84;;;18.47;40.53
52957;BME280;38819;42.692;23.342;2023-03-25T11:18:20;94663.91;;;18.61;40.29
52957;BME280;38819;42.692;23.342;2023-03-25T11:20:51;94659.59;;;18.60;40.39
52957;BME280;38819;42.692;23.342;2023-03-25T11:23:24;94660.09;;;18.65;40.38
52957;BME280;38819;42.692;23.342;2023-03-25T11:25:53;94656.59;;;18.65;40.12
52957;BME280;38819;42.692;23.342;2023-03-25T11:28:39;94658.91;;;18.63;39.74
52957;BME280;38819;42.692;23.342;2023-03-25T11:33:32;94639.25;;;18.77;39.77
52957;BME280;38819;42.692;23.342;2023-03-25T11:38:45;94632.38;;;18.83;39.54
52957;BME280;38819;42.692;23.342;2023-03-25T11:41:13;94626.69;;;18.92;38.61
52957;BME280;38819;42.692;23.342;2023-03-25T11:43:39;94626.75;;;18.95;37.98
52957;BME280;38819;42.692;23.342;2023-03-25T11:46:09;94616.47;;;19.08;37.87
52957;BME280;38819;42.692;23.342;2023-03-25T11:48:38;94628.47;;;19.03;38.11
52957;BME280;38819;42.692;23.342;2023-03-25T11:51:08;94621.56;;;19.10;37.51
52957;BME280;38819;42.692;23.342;2023-03-25T11:53:36;94611.53;;;19.17;37.26
52957;BME280;38819;42.692;23.342;2023-03-25T11:56:07;94618.72;;;19.25;37.70
52957;BME280;38819;42.692;23.342;2023-03-25T11:58:36;94613.78;;;19.31;37.64
52957;BME280;38819;42.692;23.342;2023-03-25T12:01:19;94603.31;;;19.37;37.36
52957;BME280;38819;42.692;23.342;2023-03-25T12:03:46;94603.31;;;19.37;37.33
52957;BME280;38819;42.692;23.342;2023-03-25T12:09:02;94598.25;;;19.39;37.49
52957;BME280;38819;42.692;23.342;2023-03-25T12:19:56;94595.31;;;19.28;36.62
52957;BME280;38819;42.692;23.342;2023-03-25T12:41:33;94592.72;;;19.16;37.11
52957;BME280;38819;42.692;23.342;2023-03-25T13:05:53;94603.31;;;19.17;36.54
52957;BME280;38819;42.692;23.342;2023-03-25T13:08:31;94594.28;;;19.13;36.50
52957;BME280;38819;42.692;23.342;2023-03-25T13:13:56;94595.34;;;19.09;36.88
52957;BME280;38819;42.692;23.342;2023-03-25T13:16:26;94582.38;;;19.05;36.80
52957;BME280;38819;42.692;23.342;2023-03-25T13:19:02;94596.59;;;19.11;37.05
52957;BME280;38819;42.692;23.342;2023-03-25T13:21:43;94597.66;;;19.06;36.99
52957;BME280;38819;42.692;23.342;2023-03-25T13:24:16;94593.41;;;19.09;37.28
52957;BME280;38819;42.692;23.342;2023-03-25T13:26:44;94602.72;;;19.04;37.67
52957;BME280;38819;42.692;23.342;2023-03-25T13:29:23;94592.19;;;19.06;38.50
52957;BME280;38819;42.692;23.342;2023-03-25T13:31:50;94595.50;;;18.96;38.62
52957;BME280;38819;42.692;23.342;2023-03-25T13:35:03;94601.06;;;19.00;38.31
52957;BME280;38819;42.692;23.342;2023-03-25T13:37:40;94594.28;;;18.94;37.72
52957;BME280;38819;42.692;23.342;2023-03-25T13:45:15;94623.97;;;18.76;37.81
52957;BME280;38819;42.692;23.342;2023-03-25T13:47:47;94623.91;;;18.72;38.13
52957;BME280;38819;42.692;23.342;2023-03-25T13:50:21;94626.16;;;18.66;39.00
52957;BME280;38819;42.692;23.342;2023-03-25T13:52:52;94630.44;;;18.48;39.88
52957;BME280;38819;42.692;23.342;2023-03-25T13:55:46;94631.50;;;18.43;40.13
52957;BME280;38819;42.692;23.342;2023-03-25T13:58:45;94654.63;;;18.30;41.80
52957;BME280;38819;42.692;23.342;2023-03-25T14:01:29;94656.75;;;18.21;42.81
52957;BME280;38819;42.692;23.342;2023-03-25T14:10:22;94652.38;;;17.84;46.98
52957;BME280;38819;42.692;23.342;2023-03-25T14:12:57;94656.16;;;17.80;47.36
52957;BME280;38819;42.692;23.342;2023-03-25T14:15:30;94657.56;;;17.73;47.90
52957;BME280;38819;42.692;23.342;2023-03-25T14:17:58;94650.13;;;17.74;47.40
52957;BME280;38819;42.692;23.342;2023-03-25T14:20:42;94642.56;;;17.83;48.19
52957;BME280;38819;42.692;23.342;2023-03-25T14:23:14;94650.97;;;17.90;48.80
52957;BME280;38819;42.692;23.342;2023-03-25T14:25:52;94649.41;;;17.89;49.17
52957;BME280;38819;42.692;23.342;2023-03-25T14:28:34;94654.56;;;17.78;48.93
52957;BME280;38819;42.692;23.342;2023-03-25T14:31:14;94644.50;;;17.67;49.96
52957;BME280;38819;42.692;23.342;2023-03-25T14:39:10;94631.47;;;17.60;53.55
52957;BME280;38819;42.692;23.342;2023-03-25T14:44:22;94587.00;;;17.59;56.28
52957;BME280;38819;42.692;23.342;2023-03-25T14:47:02;94576.16;;;17.63;57.33
52957;BME280;38819;42.692;23.342;2023-03-25T14:52:41;94564.19;;;17.68;59.76
52957;BME280;38819;42.692;23.342;2023-03-25T14:56:00;94564.97;;;17.68;59.09
52957;BME280;38819;42.692;23.342;2023-03-25T14:58:20;94565.22;;;17.63;58.66
52957;BME280;38819;42.692;23.342;2023-03-25T15:01:09;94566.22;;;17.55;58.68
52957;BME280;38819;42.692;23.342;2023-03-25T15:03:41;94569.38;;;17.57;59.15
52957;BME280;38819;42.692;23.342;2023-03-25T15:06:15;94571.75;;;17.58;58.59
52957;BME280;38819;42.692;23.342;2023-03-25T15:08:51;94562.78;;;17.58;58.95
52957;BME280;38819;42.692;23.342;2023-03-25T15:11:30;94547.19;;;17.58;58.59
52957;BME280;38819;42.692;23.342;2023-03-25T15:14:00;94553.25;;;17.68;58.91
52957;BME280;38819;42.692;23.342;2023-03-25T15:19:11;94556.00;;;17.68;58.49
52957;BME280;38819;42.692;23.342;2023-03-25T15:27:00;94548.84;;;17.63;58.34
52957;BME280;38819;42.692;23.342;2023-03-25T15:38:39;94544.97;;;17.48;59.45
52957;BME280;38819;42.692;23.342;2023-03-25T15:40:59;94539.25;;;17.53;58.93
52957;BME280;38819;42.692;23.342;2023-03-25T15:43:53;94537.22;;;17.50;58.88
52957;BME280;38819;42.692;23.342;2023-03-25T15:50:19;94535.53;;;17.46;59.10